Time;durP1;ratioP1;P1;durP2;ratioP2;P2;SDS_P1;SDS_P2;PMS_P1;PMS_P2;Temp;Humidity;BMP_temperature;BMP_pressure;BME280_temperature;BME280_humidity;BME280_pressure;Samples;Min_cycle;Max_cycle;Signal;HPM_P1;HPM_P2
2022/10/02 00:00:15;;;;;;;9.77;2.40;;;14.30;99.90;;;;;;5044460;28;20029;-36
2022/10/02 00:02:59;;;;;;;9.57;2.08;;;14.30;99.90;;;;;;5043584;28;20163;-35
2022/10/02 00:05:43;;;;;;;6.95;1.73;;;14.30;99.90;;;;;;5042689;28;20451;-35
2022/10/02 00:08:29;;;;;;;7.10;1.40;;;14.20;99.90;;;;;;5044553;28;20040;-34
2022/10/02 00:11:00;;;;;;;4.75;1.30;;;14.20;99.90;;;;;;5035678;28;20564;-35
2022/10/02 00:13:43;;;;;;;4.00;1.08;;;14.20;99.90;;;;;;5046338;28;20056;-38
2022/10/02 00:16:30;;;;;;;4.03;1.10;;;14.10;99.90;;;;;;5035619;28;20124;-35
2022/10/02 00:18:56;;;;;;;3.00;0.98;;;14.10;99.90;;;;;;5047105;28;20020;-35
2022/10/02 00:22:00;;;;;;;3.50;1.08;;;14.00;99.90;;;;;;5045397;28;20396;-36
2022/10/02 00:24:37;;;;;;;3.42;1.02;;;14.00;99.90;;;;;;5044811;28;20021;-34
2022/10/02 00:27:23;;;;;;;3.22;0.80;;;13.90;99.90;;;;;;5046732;28;20029;-34
2022/10/02 00:29:51;;;;;;;2.80;0.73;;;13.90;99.90;;;;;;5045885;28;20058;-35
2022/10/02 00:32:35;;;;;;;3.65;0.80;;;13.90;99.90;;;;;;5046056;28;20025;-43
2022/10/02 00:35:32;;;;;;;1.83;0.77;;;13.80;99.90;;;;;;5046943;28;20063;-37
2022/10/02 00:38:30;;;;;;;3.03;0.90;;;13.70;99.90;;;;;;5046041;28;20440;-34
2022/10/02 00:41:14;;;;;;;3.28;0.90;;;13.70;99.90;;;;;;5046594;28;20029;-38
2022/10/02 00:43:59;;;;;;;4.25;0.80;;;13.60;99.90;;;;;;5046161;28;20028;-34
2022/10/02 00:46:54;;;;;;;2.83;0.80;;;13.50;99.90;;;;;;5045421;28;20454;-36
2022/10/02 00:49:49;;;;;;;3.08;0.77;;;13.50;99.90;;;;;;5045422;28;20036;-35
2022/10/02 00:52:58;;;;;;;4.45;0.90;;;13.40;99.90;;;;;;5034445;28;20037;-35
2022/10/02 00:55:39;;;;;;;2.22;0.90;;;13.30;99.90;;;;;;5045373;28;20075;-35
2022/10/02 00:58:42;;;;;;;1.88;0.70;;;13.30;99.90;;;;;;5045121;28;20052;-36
2022/10/02 01:01:14;;;;;;;3.10;0.80;;;13.30;99.90;;;;;;5044978;28;20043;-36
2022/10/02 01:03:42;;;;;;;5.47;1.30;;;13.20;99.90;;;;;;5045190;28;20183;-34
2022/10/02 01:06:09;;;;;;;4.72;0.90;;;13.20;99.90;;;;;;5044299;28;20021;-35
2022/10/02 01:08:35;;;;;;;3.35;0.98;;;13.20;99.90;;;;;;5045764;28;20107;-35
2022/10/02 01:11:03;;;;;;;3.35;1.00;;;13.20;99.90;;;;;;5045267;28;20060;-34
2022/10/02 01:13:30;;;;;;;5.55;1.23;;;13.30;99.90;;;;;;5044070;28;20029;-35
2022/10/02 01:15:59;;;;;;;3.17;1.10;;;13.40;99.90;;;;;;5045149;28;20603;-35
2022/10/02 01:18:26;;;;;;;4.70;1.00;;;13.40;99.90;;;;;;5045323;28;20127;-36
2022/10/02 01:20:57;;;;;;;6.07;2.40;;;13.40;99.90;;;;;;5044964;28;20025;-35
2022/10/02 01:24:09;;;;;;;6.20;1.30;;;13.40;99.90;;;;;;5045518;28;20047;-35
2022/10/02 01:26:35;;;;;;;5.50;1.50;;;13.30;99.90;;;;;;5036000;28;20099;-36
2022/10/02 01:29:03;;;;;;;8.23;1.88;;;13.30;99.90;;;;;;5045160;28;20386;-35
2022/10/02 01:31:29;;;;;;;4.70;1.65;;;13.30;99.90;;;;;;5044415;28;20479;-35
2022/10/02 01:33:54;;;;;;;4.35;1.60;;;13.30;99.90;;;;;;5044642;28;20036;-34
2022/10/02 01:36:21;;;;;;;6.32;1.90;;;13.30;99.90;;;;;;5044341;28;20211;-36
2022/10/02 01:38:47;;;;;;;5.82;1.65;;;13.30;99.90;;;;;;5044859;28;20483;-36
2022/10/02 01:41:13;;;;;;;7.82;2.65;;;13.30;99.90;;;;;;5043946;28;20056;-35
2022/10/02 01:43:49;;;;;;;7.25;2.90;;;13.40;99.90;;;;;;5044894;28;20178;-35
2022/10/02 01:46:36;;;;;;;8.13;3.28;;;13.50;99.90;;;;;;5044827;28;20415;-35
2022/10/02 01:49:18;;;;;;;9.50;3.63;;;13.50;99.90;;;;;;5044408;28;20063;-35
2022/10/02 01:51:55;;;;;;;13.73;4.60;;;13.60;99.90;;;;;;5044654;28;20471;-35
2022/10/02 01:54:32;;;;;;;10.35;3.78;;;13.60;99.90;;;;;;5032796;28;20150;-35
2022/10/02 01:57:07;;;;;;;8.00;3.08;;;13.60;99.90;;;;;;5044530;28;20507;-35
2022/10/02 02:00:05;;;;;;;9.30;2.85;;;13.60;99.90;;;;;;5044588;28;20048;-35
2022/10/02 02:02:37;;;;;;;10.45;3.22;;;13.60;99.90;;;;;;5043316;28;20356;-35
2022/10/02 02:05:11;;;;;;;8.25;3.03;;;13.60;99.90;;;;;;5044396;28;20033;-35
2022/10/02 02:08:12;;;;;;;8.43;3.33;;;13.70;99.90;;;;;;5044322;28;20025;-35
2022/10/02 02:10:51;;;;;;;7.45;3.53;;;13.70;99.90;;;;;;5040574;28;20401;-36
2022/10/02 02:13:24;;;;;;;8.48;4.07;;;13.70;99.90;;;;;;5044195;28;20108;-35
2022/10/02 02:15:59;;;;;;;;;;;13.70;99.90;;;;;;5043932;28;20059;-36
2022/10/02 02:18:42;;;;;;;9.50;3.67;;;13.70;99.90;;;;;;5043752;28;20378;-36
2022/10/02 02:21:29;;;;;;;6.78;3.40;;;13.70;99.90;;;;;;5044477;28;20017;-36
2022/10/02 02:23:56;;;;;;;10.38;4.00;;;13.70;99.90;;;;;;5042909;28;20463;-36
2022/10/02 02:26:24;;;;;;;9.40;3.72;;;13.70;99.90;;;;;;5041361;28;20036;-35
2022/10/02 02:28:55;;;;;;;11.48;3.85;;;13.70;99.90;;;;;;5044191;28;20475;-35
2022/10/02 02:31:29;;;;;;;9.70;3.95;;;13.70;99.90;;;;;;5043517;28;20029;-35
2022/10/02 02:33:58;;;;;;;9.77;4.35;;;13.70;99.90;;;;;;5044624;28;20117;-36
2022/10/02 02:36:30;;;;;;;7.28;3.80;;;13.60;99.90;;;;;;5043288;28;20022;-35
2022/10/02 02:39:03;;;;;;;13.00;4.30;;;13.60;99.90;;;;;;5043970;28;20033;-36
2022/10/02 02:41:33;;;;;;;;;;;13.60;99.90;;;;;;5043902;28;20021;-35
2022/10/02 02:44:11;;;;;;;10.18;3.90;;;13.50;99.90;;;;;;5043532;28;19905;-36
2022/10/02 02:49:37;;;;;;;11.27;3.90;;;13.50;99.90;;;;;;5043785;28;20087;-35
2022/10/02 02:52:08;;;;;;;9.18;4.20;;;13.50;99.90;;;;;;5043530;28;20033;-34
2022/10/02 02:54:41;;;;;;;12.70;4.10;;;13.50;99.90;;;;;;5044599;28;20029;-35
2022/10/02 02:57:08;;;;;;;11.75;4.10;;;13.60;99.90;;;;;;5043217;28;20671;-35
2022/10/02 02:59:36;;;;;;;10.63;3.97;;;13.60;99.90;;;;;;5043078;28;20036;-35
2022/10/02 03:02:01;;;;;;;12.88;3.85;;;13.60;99.90;;;;;;5044129;28;20025;-36
2022/10/02 03:04:27;;;;;;;12.10;3.90;;;13.50;99.90;;;;;;5042488;28;20049;-35
2022/10/02 03:06:57;;;;;;;13.98;4.60;;;13.50;99.90;;;;;;5043477;28;20110;-36
2022/10/02 03:09:25;;;;;;;11.77;4.22;;;13.50;99.90;;;;;;5043334;28;20036;-36
2022/10/02 03:12:12;;;;;;;10.57;4.07;;;13.50;99.90;;;;;;5043113;28;20024;-37
2022/10/02 03:14:59;;;;;;;10.45;4.00;;;13.50;99.90;;;;;;5043442;28;20056;-36
2022/10/02 03:17:59;;;;;;;10.52;3.53;;;13.50;99.90;;;;;;5043269;28;20363;-35
2022/10/02 03:20:46;;;;;;;12.75;3.70;;;13.50;99.90;;;;;;5042032;28;20123;-36
2022/10/02 03:23:30;;;;;;;8.45;3.75;;;13.50;99.90;;;;;;5043232;28;20067;-35
2022/10/02 03:26:17;;;;;;;6.97;3.20;;;13.40;99.90;;;;;;5043675;28;20025;-35
2022/10/02 03:28:56;;;;;;;11.40;4.35;;;13.40;99.90;;;;;;5047813;28;20472;-36
2022/10/02 03:31:23;;;;;;;9.45;3.38;;;13.40;99.90;;;;;;5046729;28;20111;-35
2022/10/02 03:33:52;;;;;;;7.55;3.40;;;13.30;99.90;;;;;;5046731;28;20032;-35
2022/10/02 03:36:19;;;;;;;8.45;3.22;;;13.30;99.90;;;;;;5046885;28;20631;-35
2022/10/02 03:38:47;;;;;;;7.60;2.75;;;13.30;99.90;;;;;;5047498;28;20476;-36
2022/10/02 03:41:13;;;;;;;9.85;2.90;;;13.30;99.90;;;;;;5045472;28;20037;-36
2022/10/02 03:43:39;;;;;;;12.13;3.17;;;13.30;99.90;;;;;;5047220;28;20020;-37
2022/10/02 03:46:05;;;;;;;10.82;2.65;;;13.30;99.90;;;;;;5047476;28;20025;-38
2022/10/02 03:48:30;;;;;;;10.77;3.05;;;13.30;99.90;;;;;;5045849;28;20468;-36
2022/10/02 03:50:57;;;;;;;10.82;3.38;;;13.30;99.90;;;;;;5047126;28;20028;-39
2022/10/02 03:53:28;;;;;;;11.05;3.30;;;13.30;99.90;;;;;;5046260;28;20772;-36
2022/10/02 03:56:08;;;;;;;10.23;2.47;;;13.40;99.90;;;;;;5046257;28;20017;-35
2022/10/02 03:58:39;;;;;;;11.15;2.80;;;13.40;99.90;;;;;;5042146;28;20040;-36
2022/10/02 04:01:17;;;;;;;8.73;2.50;;;13.40;99.90;;;;;;5045867;28;20028;-36
2022/10/02 04:03:51;;;;;;;12.32;2.72;;;13.40;99.90;;;;;;5036334;28;20041;-36
2022/10/02 04:06:24;;;;;;;13.13;2.60;;;13.30;99.90;;;;;;5045606;28;20468;-36
2022/10/02 04:08:56;;;;;;;13.45;2.90;;;13.30;99.90;;;;;;5036286;28;20024;-37
2022/10/02 04:11:44;;;;;;;10.90;2.95;;;13.30;99.90;;;;;;5045855;28;20111;-38
2022/10/02 04:14:18;;;;;;;14.98;3.08;;;13.30;99.90;;;;;;5036696;28;20064;-36
2022/10/02 04:17:12;;;;;;;10.88;2.50;;;13.30;99.90;;;;;;5045725;28;20025;-36
2022/10/02 04:19:45;;;;;;;12.23;2.72;;;13.30;99.90;;;;;;5046056;28;20507;-37
2022/10/02 04:22:23;;;;;;;;;;;13.30;99.90;;;;;;5045838;28;20017;-35
2022/10/02 04:25:13;;;;;;;11.30;2.63;;;13.30;99.90;;;;;;5046559;28;20624;-35
2022/10/02 04:28:01;;;;;;;8.02;2.55;;;13.30;99.90;;;;;;5046638;28;20082;-38
2022/10/02 04:30:28;;;;;;;14.77;2.72;;;13.30;99.90;;;;;;5044893;28;20111;-36
2022/10/02 04:32:57;;;;;;;13.57;2.53;;;13.30;99.90;;;;;;5046102;28;20464;-36
2022/10/02 04:35:34;;;;;;;13.02;2.55;;;13.30;99.90;;;;;;5045402;28;20210;-35
2022/10/02 04:38:43;;;;;;;13.48;2.95;;;13.30;99.90;;;;;;5044097;28;20033;-36
2022/10/02 04:41:30;;;;;;;12.23;2.85;;;13.30;99.90;;;;;;5025911;28;20418;-36
2022/10/02 04:43:56;;;;;;;13.68;3.10;;;13.40;99.90;;;;;;5042610;28;20408;-36
2022/10/02 04:47:02;;;;;;;12.45;3.10;;;13.30;99.90;;;;;;5045534;28;20484;-36
2022/10/02 04:50:08;;;;;;;12.30;2.65;;;13.30;99.90;;;;;;5041811;28;20032;-36
2022/10/02 04:52:44;;;;;;;15.90;3.20;;;13.30;99.90;;;;;;5046105;28;20044;-35
2022/10/02 04:55:59;;;;;;;17.80;3.15;;;13.20;99.90;;;;;;5050222;28;20044;-36
2022/10/02 04:58:49;;;;;;;10.27;2.60;;;13.20;99.90;;;;;;5041513;28;20052;-37
2022/10/02 05:01:44;;;;;;;17.67;3.58;;;13.20;99.90;;;;;;5045379;28;20536;-36
2022/10/02 05:04:28;;;;;;;12.43;3.30;;;13.20;99.90;;;;;;5043854;28;20064;-36
2022/10/02 05:07:27;;;;;;;18.85;3.80;;;13.20;99.90;;;;;;5045507;28;20017;-34
2022/10/02 05:10:12;;;;;;;15.23;2.92;;;13.20;99.90;;;;;;5046027;28;20489;-36
2022/10/02 05:12:58;;;;;;;14.80;3.20;;;13.20;99.90;;;;;;5045468;28;20040;-36
2022/10/02 05:15:45;;;;;;;18.20;3.30;;;13.20;99.90;;;;;;5043511;28;20119;-35
2022/10/02 05:19:03;;;;;;;10.60;3.13;;;13.20;99.90;;;;;;5044420;28;20024;-37
2022/10/02 05:21:42;;;;;;;16.00;3.20;;;13.20;99.90;;;;;;5023947;28;20090;-36
2022/10/02 05:24:45;;;;;;;14.30;3.65;;;13.20;99.90;;;;;;5044829;28;20068;-36
2022/10/02 05:27:31;;;;;;;15.55;3.45;;;13.20;99.90;;;;;;5044204;28;20021;-36
2022/10/02 05:30:05;;;;;;;15.23;3.42;;;13.20;99.90;;;;;;5045282;28;20029;-36
2022/10/02 05:32:59;;;;;;;16.58;3.13;;;13.20;99.90;;;;;;5044239;28;20818;-36
2022/10/02 05:35:47;;;;;;;13.20;3.85;;;13.20;99.90;;;;;;5043793;28;20811;-36
2022/10/02 05:38:43;;;;;;;13.40;3.13;;;13.20;99.90;;;;;;5024884;28;20029;-35
2022/10/02 05:41:45;;;;;;;18.90;4.55;;;13.10;99.90;;;;;;5043228;28;20028;-36
2022/10/02 05:44:13;;;;;;;17.02;4.28;;;13.10;99.90;;;;;;5032050;28;20052;-36
2022/10/02 05:47:09;;;;;;;19.98;3.95;;;13.10;99.90;;;;;;5044030;28;20119;-36
2022/10/02 05:49:40;;;;;;;15.70;4.10;;;13.00;99.90;;;;;;5044410;28;20032;-37
2022/10/02 05:52:19;;;;;;;12.85;3.80;;;13.00;99.90;;;;;;5044113;28;20499;-35
2022/10/02 05:55:06;;;;;;;15.65;3.33;;;13.00;99.90;;;;;;5043943;28;20484;-38
2022/10/02 05:57:40;;;;;;;15.75;3.90;;;13.00;99.90;;;;;;5034421;28;20021;-36
2022/10/02 06:00:21;;;;;;;15.02;3.28;;;13.10;99.90;;;;;;5044379;28;20020;-37
2022/10/02 06:02:46;;;;;;;12.57;3.00;;;13.10;99.90;;;;;;5035453;28;20548;-37
2022/10/02 06:05:40;;;;;;;8.38;2.80;;;13.20;99.90;;;;;;5044300;28;20032;-36
2022/10/02 06:08:09;;;;;;;15.30;3.97;;;13.20;99.90;;;;;;5035074;28;20500;-37
2022/10/02 06:10:42;;;;;;;16.80;3.72;;;13.30;99.90;;;;;;5044325;28;20021;-36
2022/10/02 06:13:23;;;;;;;14.60;3.25;;;13.30;99.90;;;;;;5044243;28;20039;-37
2022/10/02 06:16:10;;;;;;;11.13;3.05;;;13.30;99.90;;;;;;5043724;28;20048;-35
2022/10/02 06:18:40;;;;;;;16.63;3.28;;;13.40;99.90;;;;;;5044587;28;20083;-36
2022/10/02 06:21:11;;;;;;;11.52;2.95;;;13.40;99.90;;;;;;5044064;28;20040;-37
2022/10/02 06:23:45;;;;;;;14.00;2.50;;;13.40;99.90;;;;;;5043728;28;20040;-37
2022/10/02 06:26:25;;;;;;;9.98;2.47;;;13.50;99.90;;;;;;5043582;28;20091;-36
2022/10/02 06:29:01;;;;;;;13.43;2.67;;;13.50;99.90;;;;;;5044132;28;20032;-37
2022/10/02 06:31:35;;;;;;;8.77;2.40;;;13.50;99.90;;;;;;5043820;28;20035;-39
2022/10/02 06:34:00;;;;;;;8.88;2.47;;;13.50;99.90;;;;;;5044304;28;20178;-37
2022/10/02 06:36:42;;;;;;;10.95;2.58;;;13.60;99.90;;;;;;5043164;28;20104;-36
2022/10/02 06:39:45;;;;;;;13.98;3.00;;;13.60;99.90;;;;;;5043728;28;20484;-37
2022/10/02 06:42:31;;;;;;;7.82;2.45;;;13.60;99.90;;;;;;5043392;28;20075;-36
2022/10/02 06:45:22;;;;;;;11.25;2.40;;;13.60;99.90;;;;;;5043700;28;20036;-38
2022/10/02 06:48:04;;;;;;;9.40;2.35;;;13.70;99.90;;;;;;5044131;28;20512;-37
2022/10/02 06:50:49;;;;;;;13.15;2.20;;;13.70;99.90;;;;;;5023041;28;20029;-36
2022/10/02 06:53:23;;;;;;;6.40;2.05;;;13.70;99.90;;;;;;5039771;28;20485;-36
2022/10/02 06:56:28;;;;;;;9.57;2.03;;;13.80;99.90;;;;;;5044290;28;20551;-36
2022/10/02 06:59:36;;;;;;;6.72;2.00;;;13.80;99.90;;;;;;5042777;28;20028;-36
2022/10/02 07:02:33;;;;;;;8.63;2.00;;;13.80;99.90;;;;;;5038098;28;20060;-37
2022/10/02 07:05:35;;;;;;;12.10;2.75;;;13.80;99.90;;;;;;5039609;28;20315;-35
2022/10/02 07:08:00;;;;;;;9.37;2.00;;;13.80;99.90;;;;;;5047798;28;20488;-37
2022/10/02 07:10:42;;;;;;;7.85;2.17;;;13.90;99.90;;;;;;5047408;28;20035;-36
2022/10/02 07:13:34;;;;;;;9.52;2.65;;;13.90;99.90;;;;;;5047860;28;20126;-36
2022/10/02 07:16:23;;;;;;;7.22;2.20;;;13.90;99.90;;;;;;5048067;28;20033;-36
2022/10/02 07:19:19;;;;;;;6.57;2.13;;;13.90;99.90;;;;;;5046961;28;20021;-35
2022/10/02 07:21:54;;;;;;;9.77;2.47;;;14.00;99.90;;;;;;5027535;28;20392;-36
2022/10/02 07:24:32;;;;;;;8.05;2.10;;;14.00;99.90;;;;;;5044548;28;20105;-36
2022/10/02 07:27:21;;;;;;;9.13;2.17;;;14.10;99.90;;;;;;5046823;28;20032;-36
2022/10/02 07:30:07;;;;;;;7.32;2.10;;;14.10;99.90;;;;;;5047183;28;20091;-35
2022/10/02 07:32:35;;;;;;;13.35;2.38;;;14.20;99.90;;;;;;5046535;28;20480;-39
2022/10/02 07:35:20;;;;;;;7.90;2.15;;;14.20;99.90;;;;;;5046901;28;20033;-35
2022/10/02 07:38:00;;;;;;;11.10;2.10;;;14.30;99.90;;;;;;5047197;28;20567;-36
2022/10/02 07:40:58;;;;;;;6.55;2.10;;;14.40;99.90;;;;;;5042276;28;20568;-36
2022/10/02 07:44:01;;;;;;;10.07;2.35;;;14.50;99.90;;;;;;5046772;28;20033;-36
2022/10/02 07:46:56;;;;;;;9.95;2.20;;;14.50;99.90;;;;;;5038649;28;20546;-36
2022/10/02 07:49:31;;;;;;;10.35;2.53;;;14.50;99.90;;;;;;5046223;28;20036;-36
2022/10/02 07:52:23;;;;;;;7.80;2.17;;;14.60;99.90;;;;;;5046415;28;20033;-36
2022/10/02 07:55:06;;;;;;;8.48;2.20;;;14.60;99.90;;;;;;5045221;28;20044;-38
2022/10/02 07:58:07;;;;;;;11.95;2.50;;;14.60;99.90;;;;;;5045783;28;20013;-36
2022/10/02 08:00:47;;;;;;;9.35;1.80;;;14.70;99.90;;;;;;5024628;28;20052;-36
2022/10/02 08:03:24;;;;;;;10.57;2.63;;;14.70;99.90;;;;;;5046055;28;20257;-35
2022/10/02 08:05:55;;;;;;;9.57;2.30;;;14.80;99.90;;;;;;5046321;28;20028;-35
2022/10/02 08:08:38;;;;;;;10.02;2.53;;;14.80;99.90;;;;;;5045183;28;20021;-36
2022/10/02 08:11:17;;;;;;;11.68;2.22;;;14.80;99.90;;;;;;5045614;28;20140;-37
2022/10/02 08:13:54;;;;;;;9.95;2.60;;;14.80;99.90;;;;;;5046077;28;20098;-36
2022/10/02 08:16:22;;;;;;;14.85;3.25;;;14.90;99.90;;;;;;5044941;28;20025;-38
2022/10/02 08:18:53;;;;;;;10.00;2.22;;;14.90;99.90;;;;;;5045752;28;20110;-37
2022/10/02 08:21:22;;;;;;;8.25;1.75;;;15.00;99.90;;;;;;5045269;28;20347;-37
2022/10/02 08:23:57;;;;;;;5.70;1.92;;;15.00;99.90;;;;;;5045766;28;20287;-37
2022/10/02 08:27:03;;;;;;;12.35;2.60;;;15.10;99.90;;;;;;5044823;28;20029;-36
2022/10/02 08:29:32;;;;;;;10.07;2.30;;;15.20;99.90;;;;;;5038987;28;20587;-36
2022/10/02 08:31:57;;;;;;;9.30;2.08;;;15.30;99.90;;;;;;5045604;28;20113;-36
2022/10/02 08:34:24;;;;;;;9.93;2.30;;;15.30;99.90;;;;;;5043812;28;20400;-37
2022/10/02 08:37:24;;;;;;;7.25;2.42;;;15.40;99.90;;;;;;5043885;28;20471;-36
2022/10/02 08:40:31;;;;;;;10.02;2.00;;;15.40;99.90;;;;;;5045392;28;20053;-37
2022/10/02 08:43:21;;;;;;;7.45;1.77;;;15.40;99.90;;;;;;5034295;28;20052;-35
2022/10/02 08:46:18;;;;;;;11.00;2.00;;;15.40;99.90;;;;;;5045325;28;20036;-36
2022/10/02 08:49:08;;;;;;;5.82;1.83;;;15.40;99.90;;;;;;5044940;28;20055;-36
2022/10/02 08:52:01;;;;;;;10.05;2.50;;;15.40;99.90;;;;;;5044699;28;20032;-36
2022/10/02 08:55:06;;;;;;;8.57;2.38;;;15.50;99.90;;;;;;5044343;28;20447;-37
2022/10/02 08:58:16;;;;;;;9.02;2.33;;;15.50;99.90;;;;;;5043602;28;20039;-36
2022/10/02 09:01:15;;;;;;;15.32;2.45;;;15.50;99.90;;;;;;5045198;28;20064;-36
2022/10/02 09:04:17;;;;;;;8.05;2.40;;;15.60;99.90;;;;;;5033807;28;20667;-36
2022/10/02 09:07:20;;;;;;;8.30;2.25;;;15.70;99.90;;;;;;5044614;28;20033;-36
2022/10/02 09:10:16;;;;;;;9.40;3.20;;;15.80;99.90;;;;;;5044529;28;20044;-36
2022/10/02 09:12:57;;;;;;;10.65;3.47;;;15.80;99.90;;;;;;5042265;28;20415;-36
2022/10/02 09:15:28;;;;;;;13.02;3.50;;;15.90;99.90;;;;;;5024103;28;20045;-35
2022/10/02 09:18:17;;;;;;;14.25;2.97;;;15.90;99.90;;;;;;5036883;28;20028;-35
2022/10/02 09:21:08;;;;;;;9.98;2.42;;;15.90;99.90;;;;;;5023501;28;20091;-36
2022/10/02 09:24:11;;;;;;;9.70;2.25;;;15.90;99.90;;;;;;5041398;28;20144;-35
2022/10/02 09:27:08;;;;;;;8.07;2.10;;;16.00;99.90;;;;;;5042688;28;20025;-35
2022/10/02 09:30:11;;;;;;;8.30;1.88;;;16.00;99.90;;;;;;5033643;28;20032;-36
2022/10/02 09:33:15;;;;;;;7.18;2.00;;;16.10;99.90;;;;;;5044035;28;20372;-37
2022/10/02 09:35:43;;;;;;;9.30;2.05;;;16.10;99.90;;;;;;5032789;28;20041;-37
2022/10/02 09:38:33;;;;;;;9.95;2.53;;;16.20;99.90;;;;;;5043969;28;20365;-35
2022/10/02 09:41:10;;;;;;;9.90;2.92;;;16.20;99.90;;;;;;5045130;28;20334;-36
2022/10/02 09:44:12;;;;;;;11.88;2.40;;;16.30;99.90;;;;;;5044712;28;20029;-36
2022/10/02 09:47:29;;;;;;;14.20;2.30;;;16.30;99.90;;;;;;5024815;28;20013;-35
2022/10/02 09:50:22;;;;;;;8.05;2.10;;;16.40;99.90;;;;;;5025157;28;20822;-36
2022/10/02 09:53:13;;;;;;;9.75;2.35;;;16.50;99.90;;;;;;5044270;28;20037;-35
2022/10/02 09:56:16;;;;;;;8.23;1.90;;;16.50;99.90;;;;;;5036528;28;20451;-36
2022/10/02 09:58:42;;;;;;;;;;;16.50;99.90;;;;;;5045462;28;20040;-35
2022/10/02 10:01:33;;;;;;;9.50;2.15;;;16.60;99.90;;;;;;5043591;28;19904;-35
2022/10/02 10:04:45;;;;;;;6.05;1.73;;;16.60;99.90;;;;;;5045135;28;20041;-36
2022/10/02 10:07:40;;;;;;;13.15;2.28;;;16.70;99.90;;;;;;4981909;28;20042;-36
2022/10/02 10:10:19;;;;;;;6.60;1.80;;;16.80;99.90;;;;;;5001404;28;20034;-36
2022/10/02 10:13:15;;;;;;;8.05;1.95;;;16.90;99.90;;;;;;5035304;28;20049;-36
2022/10/02 10:16:06;;;;;;;8.27;1.98;;;17.00;99.90;;;;;;5044091;28;20072;-36
2022/10/02 10:18:53;;;;;;;8.05;1.95;;;17.10;99.90;;;;;;5044641;28;20099;-37
2022/10/02 10:21:49;;;;;;;12.32;2.78;;;17.10;99.90;;;;;;5033334;28;20106;-36
2022/10/02 10:24:48;;;;;;;13.02;2.05;;;17.10;99.90;;;;;;5043706;28;20025;-36
2022/10/02 10:27:37;;;;;;;10.25;2.10;;;17.20;99.90;;;;;;5043924;28;20119;-36
2022/10/02 10:30:42;;;;;;;13.85;2.35;;;17.20;99.90;;;;;;5043644;28;20419;-37
2022/10/02 10:33:53;;;;;;;10.00;1.85;;;17.30;99.90;;;;;;5023815;28;20033;-36
2022/10/02 10:39:39;;;;;;;9.18;1.92;;;17.30;99.90;;;;;;5044093;28;20406;-36
2022/10/02 10:42:23;;;;;;;7.90;1.83;;;17.40;99.90;;;;;;5033963;28;20769;-35
2022/10/02 10:44:54;;;;;;;8.73;2.05;;;17.40;99.90;;;;;;5044425;28;20036;-37
2022/10/02 10:47:55;;;;;;;7.25;2.10;;;17.50;99.90;;;;;;5043764;28;20036;-36
2022/10/02 10:50:34;;;;;;;10.25;1.65;;;17.50;99.90;;;;;;5042659;28;20396;-35
2022/10/02 10:53:27;;;;;;;8.02;2.20;;;17.50;99.90;;;;;;5044224;28;20388;-36
2022/10/02 10:56:05;;;;;;;11.50;2.00;;;17.40;99.90;;;;;;5043309;28;20036;-35
2022/10/02 10:58:51;;;;;;;5.32;1.23;;;17.40;99.90;;;;;;5043866;28;20025;-36
2022/10/02 11:01:19;;;;;;;10.88;2.38;;;17.40;99.90;;;;;;5042217;28;20028;-34
2022/10/02 11:03:57;;;;;;;11.82;3.35;;;17.40;99.90;;;;;;5041750;28;20456;-35
2022/10/02 11:06:41;;;;;;;7.60;1.75;;;17.50;99.90;;;;;;5042645;28;20025;-36
2022/10/02 11:09:18;;;;;;;9.77;1.88;;;17.50;99.90;;;;;;5023136;28;20532;-37
2022/10/02 11:12:13;;;;;;;8.45;2.13;;;17.60;99.90;;;;;;5038384;28;20276;-36
2022/10/02 11:14:58;;;;;;;5.97;1.40;;;17.60;99.90;;;;;;5023215;28;20808;-36
2022/10/02 11:17:48;;;;;;;6.97;1.55;;;17.60;99.90;;;;;;5041204;28;20417;-37
2022/10/02 11:20:37;;;;;;;12.05;2.40;;;17.70;99.90;;;;;;5042781;28;20404;-37
2022/10/02 11:23:21;;;;;;;7.78;1.58;;;17.60;99.90;;;;;;5043340;28;20025;-35
2022/10/02 11:26:33;;;;;;;13.98;2.63;;;17.60;99.90;;;;;;5042759;28;20020;-37
2022/10/02 11:29:47;;;;;;;7.05;1.92;;;17.70;99.90;;;;;;5036433;28;20660;-36
2022/10/02 11:32:50;;;;;;;6.47;1.60;;;17.80;99.90;;;;;;5031134;28;20041;-36
2022/10/02 11:35:36;;;;;;;7.75;1.60;;;17.80;99.90;;;;;;5022370;28;20038;-37
2022/10/02 11:38:08;;;;;;;5.95;1.48;;;17.90;99.90;;;;;;5040699;28;20057;-37
2022/10/02 11:40:45;;;;;;;7.75;2.03;;;17.90;99.90;;;;;;5043238;28;20112;-36
2022/10/02 11:43:35;;;;;;;7.60;1.88;;;17.90;99.90;;;;;;5042214;28;20070;-36
2022/10/02 11:46:37;;;;;;;6.82;1.40;;;18.00;99.90;;;;;;5042270;28;20400;-37
2022/10/02 11:49:33;;;;;;;8.30;1.58;;;18.00;99.90;;;;;;5046125;28;20514;-38
2022/10/02 11:52:40;;;;;;;7.22;1.50;;;18.10;99.90;;;;;;5046249;28;20108;-37
2022/10/02 11:55:27;;;;;;;6.55;1.70;;;18.00;99.90;;;;;;5034846;28;20428;-36
2022/10/02 11:58:03;;;;;;;5.38;1.35;;;18.00;99.90;;;;;;5045964;28;20037;-36
2022/10/02 12:00:51;;;;;;;4.88;1.42;;;18.10;99.90;;;;;;5045691;28;20478;-38
2022/10/02 12:03:35;;;;;;;8.02;1.75;;;18.10;99.90;;;;;;5045158;28;20049;-38
2022/10/02 12:06:14;;;;;;;7.68;1.80;;;18.10;99.90;;;;;;5026492;28;20356;-37
2022/10/02 12:08:46;;;;;;;7.35;1.80;;;18.10;99.90;;;;;;5041893;28;20059;-37
2022/10/02 12:11:18;;;;;;;7.30;1.75;;;18.00;99.90;;;;;;5025984;28;20025;-37
2022/10/02 12:14:10;;;;;;;6.73;1.90;;;18.00;99.90;;;;;;5039959;28;20028;-36
2022/10/02 12:17:07;;;;;;;5.68;1.40;;;17.90;99.90;;;;;;5026104;28;20287;-35
2022/10/02 12:29:42;;;;;;;8.98;1.77;;;17.60;99.90;;;;;;5044961;28;20170;-37
2022/10/02 12:32:22;;;;;;;6.47;1.55;;;17.60;99.90;;;;;;5026204;28;20025;-37
2022/10/02 12:35:06;;;;;;;8.20;1.70;;;17.60;99.90;;;;;;5043125;28;20404;-35
2022/10/02 12:37:35;;;;;;;9.50;1.88;;;17.60;99.90;;;;;;5045202;28;20036;-37
2022/10/02 12:40:07;;;;;;;8.27;1.85;;;17.70;99.90;;;;;;5045866;28;20025;-35
2022/10/02 12:42:54;;;;;;;9.17;1.67;;;17.70;99.90;;;;;;5044631;28;20028;-35
2022/10/02 12:45:33;;;;;;;8.50;2.22;;;17.70;99.90;;;;;;5044395;28;20386;-35
2022/10/02 12:48:22;;;;;;;8.13;1.77;;;17.80;99.90;;;;;;5045354;28;20021;-36
2022/10/02 12:50:54;;;;;;;9.82;1.98;;;17.80;99.90;;;;;;5045522;28;20515;-34
2022/10/02 12:53:48;;;;;;;7.38;1.90;;;17.80;99.90;;;;;;5044847;28;20031;-35
2022/10/02 12:56:28;;;;;;;6.25;1.95;;;17.80;99.90;;;;;;5044277;28;20103;-35
2022/10/02 12:59:22;;;;;;;6.85;1.48;;;17.90;99.90;;;;;;5043875;28;20036;-37
2022/10/02 13:01:48;;;;;;;7.82;2.53;;;18.00;99.90;;;;;;5035951;28;20064;-36
2022/10/02 13:04:37;;;;;;;10.63;2.05;;;18.10;99.90;;;;;;5043696;28;20305;-35
2022/10/02 13:07:43;;;;;;;8.23;2.10;;;18.10;99.90;;;;;;5044689;28;20413;-36
2022/10/02 13:10:32;;;;;;;10.73;2.10;;;18.00;99.90;;;;;;5044100;28;20029;-35
2022/10/02 13:13:34;;;;;;;12.18;2.15;;;18.00;99.90;;;;;;5045444;28;20447;-35
2022/10/02 13:16:06;;;;;;;8.53;1.83;;;17.90;99.80;;;;;;5041103;28;20055;-35
2022/10/02 13:19:09;;;;;;;8.18;1.80;;;17.90;99.30;;;;;;5044965;28;20127;-36
2022/10/02 13:21:46;;;;;;;11.10;1.90;;;17.90;99.90;;;;;;5045639;28;20111;-35
2022/10/02 13:24:52;;;;;;;7.75;2.10;;;18.00;99.70;;;;;;5044781;28;20037;-36
2022/10/02 13:27:40;;;;;;;10.15;2.17;;;18.00;99.40;;;;;;5043529;28;20166;-36
2022/10/02 13:30:18;;;;;;;10.48;2.15;;;18.10;99.40;;;;;;5045091;28;20376;-35
2022/10/02 13:33:16;;;;;;;4.50;1.45;;;18.30;99.40;;;;;;5034867;28;20040;-36
2022/10/02 13:36:02;;;;;;;7.55;1.60;;;18.40;99.20;;;;;;5045010;28;20052;-36
2022/10/02 13:38:28;;;;;;;6.30;1.88;;;18.50;99.30;;;;;;5044377;28;20082;-42
2022/10/02 13:41:13;;;;;;;6.72;1.48;;;18.60;99.70;;;;;;5045160;28;20033;-36
2022/10/02 13:44:06;;;;;;;8.63;1.83;;;18.60;99.40;;;;;;5045572;28;20021;-35
2022/10/02 13:46:55;;;;;;;7.53;1.70;;;18.60;97.60;;;;;;5044274;28;20021;-36
2022/10/02 13:49:39;;;;;;;5.22;1.52;;;18.40;97.40;;;;;;5044207;28;20056;-35
2022/10/02 13:52:49;;;;;;;6.50;1.58;;;18.20;97.60;;;;;;5044014;28;20035;-36
2022/10/02 13:55:32;;;;;;;8.10;1.70;;;18.10;98.00;;;;;;5002180;28;20042;-36
2022/10/02 13:58:09;;;;;;;7.00;1.70;;;18.10;98.50;;;;;;5021660;28;20117;-36
2022/10/02 14:00:37;;;;;;;8.52;1.95;;;18.10;97.80;;;;;;5036465;28;20076;-34
2022/10/02 14:03:40;;;;;;;6.53;1.80;;;18.20;97.90;;;;;;5043577;28;20111;-37
2022/10/02 14:06:16;;;;;;;10.85;2.13;;;18.30;97.90;;;;;;5042846;28;20025;-36
2022/10/02 14:08:41;;;;;;;8.80;1.85;;;18.40;97.40;;;;;;5044571;28;20035;-35
2022/10/02 14:11:42;;;;;;;10.43;1.98;;;18.50;97.10;;;;;;5044221;28;20029;-36
2022/10/02 14:15:04;;;;;;;9.68;1.90;;;18.50;96.80;;;;;;5033759;28;20033;-35
2022/10/02 14:17:51;;;;;;;7.45;1.80;;;18.60;96.90;;;;;;5020150;28;20437;-37
2022/10/02 14:20:37;;;;;;;8.00;2.08;;;18.80;97.00;;;;;;5019904;28;20032;-35
2022/10/02 14:23:10;;;;;;;8.02;1.67;;;18.80;96.90;;;;;;5041624;28;20044;-35